x

Mid Gulf - 180 Nm South Of Southwest Pass, La (42001) Wave Buoy

10:50am - Mon 20th Feb 2017 All times are UTC.

  • Sig Wave height 4.3ft
  • Swell Direction
  • Peak Period 5s
  • Average Period 5s
  • Wind
    18mph, 22mph gusts
  • Sea Temp 76°f
  • Air Temp 75°f
  • Sea Pressure 1014.8mb

More Historic Weather Station data

Upgrade to MSW Pro to gain access to the past 30 days of data for over 8000 Wavebouys and Weather Stations around the globe.

Join Pro

Comparision Forecast

View Surf forecast
   
Mon 02/20 10:50am 4.5ft 5s 5s 18 22 mph 1014.8mb 76f 75f
9:50am 4.5ft 5s 5s 20 25 mph 1014.5mb 76f 75f
8:50am 4ft 5s 5s 20 25 mph 1014.7mb 76f 75f
7:50am 4ft 5s 5s 18 22 mph 1015.5mb 76f 75f
6:50am 4ft 5s 4s 16 20 mph 1016.5mb 76f 76f
5:50am 3.5ft 5s 4s 18 20 mph 1016.5mb 76f 76f
4:50am 3.5ft 5s 4s 18 22 mph 1016.5mb 76f 76f
3:50am 3.5ft 6s 4s 20 22 mph 1016.2mb 76f 76f
2:50am 3.5ft 6s 5s 18 20 mph 1015.9mb 76f 76f
1:50am 3.5ft 5s 4s 16 20 mph 1015.3mb 76f 76f
12:50am 3.5ft 7s 5s 13 16 mph 1015.3mb 76f 76f
Sun 02/19 11:50pm 3ft 5s 4s 13
mph
1015.3mb 76f 76f
10:50pm 3ft 5s 4s 13 16 mph 1015.1mb 76f 76f
9:50pm 2.5ft 5s 4s 11 13 mph 1015mb 76f 76f
8:50pm 3ft 5s 4s 11 13 mph 1015.1mb 76f 76f
7:50pm 3ft 5s 4s 13 16 mph 1015.5mb 76f 76f
6:50pm 2.5ft 5s 4s 16 18 mph 1015.5mb 75f 76f
5:50pm 3ft 5s 4s 13 16 mph 1016.1mb 75f 76f
4:50pm 3.5ft 6s 4s 11 16 mph 1016.6mb 75f 76f
3:50pm 3ft 6s 4s 13 16 mph 1016.6mb 75f 76f
2:50pm 3ft 5s 4s 11 13 mph 1016.2mb 75f 76f
1:50pm 3.5ft 6s 4s 13 16 mph 1015.5mb 75f 76f
12:50pm 3ft 6s 4s 13 16 mph 1014.5mb 75f 75f
11:50am 3.5ft 6s 5s 13 16 mph 1014mb 75f 75f
10:50am 3.5ft 6s 5s 13
mph
1013.7mb 75f 75f
9:50am 3.5ft 6s 5s 11 13 mph 1013.6mb 75f 75f
8:50am 3.5ft 6s 5s 16 18 mph 1013.6mb 75f 75f
7:50am 3.5ft 6s 5s 13 16 mph 1013.5mb 75f 75f
6:50am 3.5ft 6s 5s 13 18 mph 1013.6mb 75f 75f
5:50am 3.5ft 6s 5s 11 13 mph 1014.2mb 75f 75f
4:50am 4ft 6s 5s 4 7 mph 1014.9mb 75f 75f
3:50am 3.5ft 6s 5s 7
mph
1014.6mb 75f 75f
2:50am 4ft 6s 5s 9
mph
1014.1mb 75f 75f
1:50am 3.5ft 7s 5s 9 11 mph 1013.3mb 75f 75f
12:50am 3.5ft 6s 5s 9 11 mph 1012.5mb 75f 75f
Sat 02/18 11:50pm 3.5ft 6s 5s 9
mph
1012.6mb 75f 75f
10:50pm 3.5ft 6s 5s 11 13 mph 1012.3mb 75f 76f
9:50pm 4ft 6s 5s 11 13 mph 1012mb 75f 76f
8:50pm 4ft 6s 5s 11 13 mph 1012mb 75f 76f
7:50pm 4.5ft 6s 5s 9 13 mph 1012.2mb 76f 76f
6:50pm 4ft 6s 5s 9 11 mph 1013mb 75f 75f
5:50pm 4.5ft 6s 5s 16 18 mph 1013.8mb 75f 73f
4:50pm 4ft 6s 5s 13 16 mph 1014.2mb 75f 73f
3:50pm 4ft 6s 5s 13 18 mph 1014.4mb 75f 72f
2:50pm 4ft 5s 5s 13
mph
1014.2mb 75f 71f
1:50pm 4.5ft 6s 5s 16 20 mph 1013.1mb 75f 70f
12:50pm 4.5ft 5s 4s 16 18 mph 1013.1mb 75f 69f
11:50am 3.5ft 6s 4s 16 20 mph 1012.5mb 75f 69f
10:50am 3ft 6s 4s 16 22 mph 1011.7mb 75f 69f
9:50am 2.5ft 5s 4s 9 16 mph 1011.6mb 75f 71f
8:50am 3ft 6s 4s 7 18 mph 1010.9mb 75f 74f
7:50am 3ft 5s 4s 11 13 mph 1011.7mb 75f 74f
6:50am 3ft 5s 4s 13 16 mph 1012mb 75f 74f
5:50am 3.5ft 5s 4s 11 13 mph 1012.2mb 75f 73f
4:50am 3.5ft 5s 4s 13 16 mph 1012.5mb 75f 72f
3:50am 3ft 5s 4s 11 13 mph 1013mb 74f 71f
2:50am 2.5ft 5s 4s 11 13 mph 1013.3mb 75f 70f
1:50am 3ft 5s 4s 13 18 mph 1013.1mb 75f 70f
12:50am 3ft 5s 4s 9 11 mph 1013.8mb 75f 69f
Fri 02/17 11:50pm 3ft 5s 4s 7 16 mph 1014mb 76f 72f
10:50pm 3ft 4s 4s 20 22 mph 1012.2mb 75f 73f
9:50pm 2.5ft 4s 4s 20 22 mph 1012.6mb 75f 73f
8:50pm 2.5ft 4s 4s 16 18 mph 1013.9mb 76f 73f
7:50pm 2ft 4s 4s 18 22 mph 1014.5mb 76f 72f
6:50pm 2ft 5s  -  13 16 mph 1016.1mb 76f 72f
5:50pm 2ft 5s 4s 11 13 mph 1017.7mb 76f 72f
4:50pm 2ft 5s 4s 13 16 mph 1018.3mb 76f 72f
3:50pm 1.6ft 5s 4s 13 18 mph 1018mb 76f 72f
2:50pm 2ft 6s 4s 11 16 mph 1018mb 76f 72f
1:50pm 2ft 5s 5s 11 13 mph 1017.5mb 76f 71f
12:50pm 2ft 6s 5s 9 11 mph 1016.9mb 75f 70f
11:50am 2ft 5s 5s 4 7 mph 1016.9mb 75f 70f
10:50am 2ft 6s 5s 7 11 mph 1016.7mb 75f 70f
9:50am 2.5ft 6s 5s 7 11 mph 1016.3mb 75f 69f
8:50am 2.5ft 6s 5s 9 13 mph 1016.4mb 75f 69f
7:50am 2.5ft 6s 5s 4 9 mph 1017.3mb 75f 69f
6:50am 2.5ft 6s 5s 9 11 mph 1017.7mb 75f 69f
5:50am 2.5ft 6s 5s 4 9 mph 1018.2mb 75f 68f
4:50am 3ft 6s 5s 7 9 mph 1018.3mb 75f 68f
3:50am 3.5ft 6s 5s 2 4 mph 1018.9mb 75f 68f
2:50am 3.5ft 6s 5s 4 7 mph 1019mb 75f 67f
1:50am 3.5ft 7s 5s 2 4 mph 1018.7mb 75f 67f
12:50am 4.5ft 7s 6s 2 4 mph 1018.8mb 75f 66f
Thu 02/16 11:50pm 4ft 7s 5s 4 9 mph 1018.5mb 75f 66f
10:50pm 4.5ft 6s 5s 9 11 mph 1018.2mb 75f 67f
9:50pm 4.5ft 7s 6s 4 11 mph 1017.8mb 75f 67f
8:50pm 4.5ft 8s 5s 4 7 mph 1017.6mb 75f 67f
7:50pm 5ft 7s 6s 9 11 mph 1017.9mb 75f 67f
6:50pm 5ft 8s 6s 9 13 mph 1018.5mb 75f 67f
5:50pm 5ft 7s 6s 9 13 mph 1019.2mb 75f 67f
4:50pm 5ft 8s 6s 9 13 mph 1019.9mb 75f 67f
3:50pm 5ft 8s 5s 11 13 mph 1020.3mb 75f 66f
2:50pm 5.5ft 8s 6s 11 18 mph 1020.2mb 75f 66f
1:50pm 5ft 8s 5s 13 18 mph 1018.9mb 75f 66f
12:50pm 5.5ft 8s 6s 13 18 mph 1018.5mb 75f 66f